createdAt,value
2019-05-11T00:00:00.719Z,1.83
2019-05-11T00:02:30.897Z,1.40
2019-05-11T00:05:00.266Z,1.60
2019-05-11T00:07:30.269Z,1.63
2019-05-11T00:09:59.950Z,1.90
2019-05-11T00:12:29.845Z,1.53
2019-05-11T00:14:59.798Z,1.73
2019-05-11T00:17:29.764Z,1.67
2019-05-11T00:19:59.159Z,1.50
2019-05-11T00:22:28.993Z,1.60
2019-05-11T00:24:58.353Z,2.07
2019-05-11T00:27:28.237Z,1.60
2019-05-11T00:29:57.604Z,1.53
2019-05-11T00:32:27.475Z,1.60
2019-05-11T00:34:57.486Z,1.80
2019-05-11T00:37:26.834Z,1.50
2019-05-11T00:40:11.919Z,1.77
2019-05-11T00:42:28.302Z,1.80
2019-05-11T00:44:58.269Z,1.60
2019-05-11T00:47:28.326Z,1.70
2019-05-11T00:49:57.668Z,1.50
2019-05-11T00:52:27.534Z,1.70
2019-05-11T00:54:57.590Z,1.80
2019-05-11T00:57:27.855Z,1.70
2019-05-11T00:59:57.842Z,1.80
2019-05-11T01:02:27.805Z,1.60
2019-05-11T01:04:57.785Z,2.10
2019-05-11T01:07:27.737Z,2.10
2019-05-11T01:09:57.708Z,1.90
2019-05-11T01:12:27.700Z,1.70
2019-05-11T01:14:57.070Z,1.73
2019-05-11T01:17:26.308Z,1.60
2019-05-11T01:19:55.601Z,1.70
2019-05-11T01:22:25.460Z,1.63
2019-05-11T01:24:55.456Z,1.87
2019-05-11T01:27:25.389Z,2.50
2019-05-11T01:29:55.371Z,2.03
2019-05-11T01:32:24.698Z,2.20
2019-05-11T01:34:54.561Z,2.23
2019-05-11T01:37:24.914Z,1.90
2019-05-11T01:39:54.944Z,1.70
2019-05-11T01:42:24.245Z,1.73
2019-05-11T01:44:54.090Z,1.93
2019-05-11T01:47:24.090Z,1.57
2019-05-11T01:49:53.441Z,1.40
2019-05-11T01:52:23.312Z,1.67
2019-05-11T01:54:53.269Z,1.33
2019-05-11T01:57:22.590Z,1.50
2019-05-11T01:59:52.144Z,1.43
2019-05-11T02:02:21.977Z,1.60
2019-05-11T02:05:10.244Z,1.60
2019-05-11T02:07:40.130Z,1.60
2019-05-11T02:10:10.340Z,2.07
2019-05-11T02:12:40.317Z,1.50
2019-05-11T02:15:10.360Z,1.63
2019-05-11T02:17:40.319Z,1.80
2019-05-11T02:20:10.722Z,1.40
2019-05-11T02:22:40.670Z,1.27
2019-05-11T02:25:10.769Z,1.30
2019-05-11T02:27:41.071Z,1.47
2019-05-11T02:30:11.490Z,1.17
2019-05-11T02:32:40.842Z,1.27
2019-05-11T02:35:10.997Z,1.30
2019-05-11T02:37:40.956Z,1.30
2019-05-11T02:40:11.677Z,1.10
2019-05-11T02:42:42.219Z,1.17
2019-05-11T02:45:13.072Z,1.40
2019-05-11T02:47:43.001Z,1.20
2019-05-11T02:50:13.444Z,1.60
2019-05-11T02:52:43.920Z,1.47
2019-05-11T02:55:14.406Z,1.20
2019-05-11T02:57:44.338Z,1.30
2019-05-11T03:00:14.378Z,1.30
2019-05-11T03:02:44.335Z,1.30
2019-05-11T03:05:14.364Z,1.43
2019-05-11T03:07:44.328Z,1.40
2019-05-11T03:10:14.337Z,1.47
2019-05-11T03:12:44.332Z,1.50
2019-05-11T03:15:14.367Z,1.40
2019-05-11T03:17:44.311Z,1.43
2019-05-11T03:20:14.218Z,1.30
2019-05-11T03:22:44.483Z,1.23
2019-05-11T03:25:14.396Z,1.13
2019-05-11T03:27:44.334Z,1.00
2019-05-11T03:30:14.591Z,1.30
2019-05-11T03:32:44.844Z,1.77
2019-05-11T03:35:14.767Z,1.10
2019-05-11T03:37:44.751Z,1.47
2019-05-11T03:40:14.857Z,1.70
2019-05-11T03:42:44.777Z,1.50
2019-05-11T03:45:15.234Z,1.53
2019-05-11T03:47:45.214Z,1.40
2019-05-11T03:50:14.723Z,1.37
2019-05-11T03:52:44.592Z,1.57
2019-05-11T03:55:13.966Z,1.50
2019-05-11T03:57:43.836Z,1.40
2019-05-11T04:00:14.258Z,1.20
2019-05-11T04:02:44.202Z,1.30
2019-05-11T04:05:14.211Z,1.40
2019-05-11T04:07:44.443Z,1.13
2019-05-11T04:10:13.870Z,1.30
2019-05-11T04:12:43.730Z,1.33
2019-05-11T04:15:14.146Z,1.53
2019-05-11T04:17:44.026Z,1.43
2019-05-11T04:20:14.006Z,1.40
2019-05-11T04:22:43.927Z,1.10
2019-05-11T04:25:13.998Z,1.13
2019-05-11T04:27:43.960Z,1.57
2019-05-11T04:30:13.288Z,1.37
2019-05-11T04:32:42.501Z,1.20
2019-05-11T04:35:12.547Z,1.30
2019-05-11T04:37:42.461Z,1.10
2019-05-11T04:40:12.892Z,1.13
2019-05-11T04:42:54.489Z,1.40
2019-05-11T04:45:14.053Z,1.80
2019-05-11T04:47:43.388Z,1.20
2019-05-11T04:50:13.338Z,1.20
2019-05-11T04:52:42.586Z,1.10
2019-05-11T04:55:12.461Z,1.27
2019-05-11T04:57:42.366Z,1.47
2019-05-11T05:00:12.798Z,1.20
2019-05-11T05:02:42.742Z,1.00
2019-05-11T05:05:12.329Z,1.20
2019-05-11T05:07:48.001Z,1.50
2019-05-11T05:10:14.107Z,1.10
2019-05-11T05:12:50.751Z,1.00
2019-05-11T05:15:16.105Z,1.33
2019-05-11T05:17:46.042Z,1.30
2019-05-11T05:20:17.315Z,1.30
2019-05-11T05:22:46.865Z,1.40
2019-05-11T05:25:16.776Z,1.50
2019-05-11T05:27:46.688Z,1.50
2019-05-11T05:30:16.835Z,1.63
2019-05-11T05:32:46.755Z,1.33
2019-05-11T05:35:16.658Z,1.77
2019-05-11T05:37:46.668Z,2.43
2019-05-11T05:40:16.652Z,1.70
2019-05-11T05:42:45.961Z,2.30
2019-05-11T05:45:15.826Z,2.10
2019-05-11T05:47:45.735Z,1.67
2019-05-11T05:50:15.056Z,1.70
2019-05-11T05:52:44.844Z,1.70
2019-05-11T05:55:15.202Z,2.00
2019-05-11T05:57:45.451Z,2.10
2019-05-11T06:00:15.963Z,1.90
2019-05-11T06:02:45.904Z,1.97
2019-05-11T06:05:15.227Z,1.70
2019-05-11T06:07:45.055Z,2.00
2019-05-11T06:10:15.314Z,1.70
2019-05-11T06:12:45.286Z,2.30
2019-05-11T06:15:15.725Z,2.13
2019-05-11T06:17:44.956Z,2.23
2019-05-11T06:20:14.761Z,2.40
2019-05-11T06:22:44.708Z,2.30
2019-05-11T06:25:14.151Z,1.83
2019-05-11T06:27:43.968Z,1.90
2019-05-11T06:30:14.523Z,1.63
2019-05-11T06:32:44.445Z,2.33
2019-05-11T06:35:14.596Z,1.87
2019-05-11T06:37:44.511Z,1.93
2019-05-11T06:40:14.362Z,2.00
2019-05-11T06:42:44.274Z,1.67
2019-05-11T06:45:14.350Z,1.60
2019-05-11T06:47:44.296Z,1.30
2019-05-11T06:50:14.647Z,1.37
2019-05-11T06:52:44.608Z,1.60
2019-05-11T06:55:14.542Z,1.50
2019-05-11T06:57:44.445Z,1.30
2019-05-11T07:00:14.590Z,1.03
2019-05-11T07:02:43.878Z,1.53
2019-05-11T07:05:13.931Z,1.27
2019-05-11T07:07:47.629Z,1.30
2019-05-11T07:10:14.781Z,0.97
2019-05-11T07:12:44.613Z,1.03
2019-05-11T07:15:14.561Z,1.20
2019-05-11T07:17:43.849Z,1.27
2019-05-11T07:20:13.015Z,1.60
2019-05-11T07:22:42.284Z,1.53
2019-05-11T07:25:12.099Z,1.13
2019-05-11T07:27:42.021Z,1.50
2019-05-11T07:30:11.902Z,1.27
2019-05-11T07:32:41.824Z,1.40
2019-05-11T07:35:11.784Z,1.23
2019-05-11T07:37:41.407Z,1.40
2019-05-11T07:40:11.327Z,1.30
2019-05-11T07:42:41.265Z,1.10
2019-05-11T07:45:11.377Z,0.93
2019-05-11T07:47:41.668Z,1.10
2019-05-11T07:50:11.032Z,1.10
2019-05-11T07:52:40.245Z,1.07
2019-05-11T07:55:09.381Z,0.90
2019-05-11T07:57:39.434Z,1.30
2019-05-11T08:00:09.234Z,1.17
2019-05-11T08:02:39.039Z,1.80
2019-05-11T08:05:11.109Z,1.77
2019-05-11T08:07:40.366Z,1.10
2019-05-11T08:10:09.789Z,0.90
2019-05-11T08:12:39.940Z,0.90
2019-05-11T08:15:13.195Z,1.07
2019-05-11T08:17:40.959Z,1.33
2019-05-11T08:20:11.209Z,1.37
2019-05-11T08:22:40.537Z,1.37
2019-05-11T08:25:10.806Z,1.47
2019-05-11T08:27:40.056Z,1.57
2019-05-11T08:30:11.419Z,1.30
2019-05-11T08:32:41.313Z,1.27
2019-05-11T08:35:10.998Z,1.27
2019-05-11T08:37:40.221Z,1.13
2019-05-11T08:40:09.632Z,1.20
2019-05-11T08:42:39.473Z,1.13
2019-05-11T08:45:18.885Z,1.37
2019-05-11T08:47:40.458Z,1.77
2019-05-11T08:50:15.059Z,1.30
2019-05-11T08:52:43.043Z,1.50
2019-05-11T08:55:13.083Z,1.00
2019-05-11T08:57:43.012Z,1.67
2019-05-11T09:00:18.134Z,1.40
2019-05-11T09:02:50.744Z,6.30
2019-05-11T09:05:19.629Z,1.20
2019-05-11T09:07:48.946Z,1.10
2019-05-11T09:10:18.884Z,1.40
2019-05-11T09:12:49.151Z,1.30
2019-05-11T09:15:32.722Z,1.40
2019-05-11T09:17:50.634Z,1.03
2019-05-11T09:20:19.868Z,1.27
2019-05-11T09:22:49.705Z,1.30
2019-05-11T09:25:18.948Z,1.33
2019-05-11T09:27:48.733Z,1.30
2019-05-11T09:30:18.593Z,1.80
2019-05-11T09:32:48.709Z,1.10
2019-05-11T09:35:18.930Z,1.37
2019-05-11T09:37:48.609Z,1.20
2019-05-11T09:40:18.362Z,2.00
2019-05-11T09:42:48.749Z,1.10
2019-05-11T09:45:18.897Z,1.00
2019-05-11T09:47:48.846Z,1.30
2019-05-11T09:50:18.887Z,0.90
2019-05-11T09:52:49.261Z,1.10
2019-05-11T09:55:19.389Z,1.00
2019-05-11T09:57:49.791Z,1.00
2019-05-11T10:00:20.218Z,0.80
2019-05-11T10:02:49.539Z,1.10
2019-05-11T10:05:19.111Z,0.90
2019-05-11T10:07:49.008Z,1.10
2019-05-11T10:10:19.020Z,1.17
2019-05-11T10:12:50.696Z,1.00
2019-05-11T10:15:20.677Z,0.90
2019-05-11T10:17:49.935Z,1.20
2019-05-11T10:20:19.830Z,1.00
2019-05-11T10:22:49.975Z,1.00
2019-05-11T10:25:19.925Z,1.10
2019-05-11T10:27:49.275Z,1.37
2019-05-11T10:30:19.516Z,1.00
2019-05-11T10:32:49.549Z,0.90
2019-05-11T10:35:19.529Z,1.93
2019-05-11T10:37:48.857Z,1.00
2019-05-11T10:40:18.996Z,0.87
2019-05-11T10:42:49.154Z,1.10
2019-05-11T10:45:18.519Z,1.20
2019-05-11T10:47:49.113Z,0.80
2019-05-11T10:50:18.862Z,0.90
2019-05-11T10:52:48.531Z,0.87
2019-05-11T10:55:19.411Z,0.97
2019-05-11T10:57:49.427Z,0.77
2019-05-11T11:00:19.963Z,0.80
2019-05-11T11:02:49.869Z,1.03
2019-05-11T11:05:19.895Z,1.00
2019-05-11T11:07:49.205Z,1.37
2019-05-11T11:10:19.155Z,0.90
2019-05-11T11:12:49.136Z,1.00
2019-05-11T11:15:19.491Z,0.90
2019-05-11T11:17:49.411Z,1.10
2019-05-11T11:20:19.470Z,1.10
2019-05-11T11:22:48.870Z,1.10
2019-05-11T11:25:19.181Z,1.10
2019-05-11T11:27:49.129Z,0.97
2019-05-11T11:30:19.727Z,1.17
2019-05-11T11:32:49.645Z,0.80
2019-05-11T11:35:19.249Z,0.90
2019-05-11T11:37:49.085Z,1.00
2019-05-11T11:40:18.511Z,0.90
2019-05-11T11:42:47.961Z,1.07
2019-05-11T11:45:18.551Z,0.87
2019-05-11T11:47:49.404Z,1.03
2019-05-11T11:50:19.846Z,1.13
2019-05-11T11:52:49.747Z,1.10
2019-05-11T11:55:19.000Z,1.07
2019-05-11T11:57:50.414Z,1.00
2019-05-11T12:00:20.135Z,1.10
2019-05-11T12:02:50.154Z,1.03
2019-05-11T12:05:20.090Z,1.10
2019-05-11T12:07:49.727Z,0.70
2019-05-11T12:10:19.837Z,1.20
2019-05-11T12:12:50.043Z,0.90
2019-05-11T12:15:20.451Z,1.10
2019-05-11T12:17:50.290Z,1.00
2019-05-11T12:20:19.520Z,1.20
2019-05-11T12:22:49.352Z,1.27
2019-05-11T12:25:19.302Z,0.87
2019-05-11T12:27:49.291Z,1.00
2019-05-11T12:30:18.844Z,1.27
2019-05-11T12:32:49.987Z,1.53
2019-05-11T12:35:20.622Z,1.40
2019-05-11T12:37:50.498Z,1.07
2019-05-11T12:40:19.831Z,1.30
2019-05-11T12:42:49.718Z,1.20
2019-05-11T12:45:19.968Z,1.40
2019-05-11T12:47:49.318Z,1.43
2019-05-11T12:50:18.825Z,1.27
2019-05-11T12:52:48.828Z,1.30
2019-05-11T12:55:19.496Z,1.30
2019-05-11T12:57:49.449Z,0.90
2019-05-11T13:00:19.497Z,0.97
2019-05-11T13:02:49.467Z,0.80
2019-05-11T13:05:19.475Z,0.90
2019-05-11T13:07:49.588Z,0.70
2019-05-11T13:10:19.079Z,0.70
2019-05-11T13:12:49.481Z,0.50
2019-05-11T13:15:19.051Z,0.87
2019-05-11T13:17:49.423Z,0.90
2019-05-11T13:20:19.433Z,0.67
2019-05-11T13:22:49.662Z,0.73
2019-05-11T13:25:19.602Z,0.93
2019-05-11T13:27:49.578Z,0.70
2019-05-11T13:30:19.860Z,0.80
2019-05-11T13:32:49.744Z,0.80
2019-05-11T13:35:19.659Z,0.53
2019-05-11T13:37:49.931Z,0.70
2019-05-11T13:40:19.873Z,0.80
2019-05-11T13:42:49.339Z,0.70
2019-05-11T13:45:19.255Z,0.80
2019-05-11T13:47:55.284Z,0.60
2019-05-11T13:50:20.133Z,0.87
2019-05-11T13:52:50.008Z,0.53
2019-05-11T13:55:19.324Z,0.80
2019-05-11T13:57:48.819Z,0.70
2019-05-11T14:00:18.161Z,0.80
2019-05-11T14:02:48.740Z,0.73
2019-05-11T14:05:18.793Z,0.57
2019-05-11T14:07:48.721Z,0.50
2019-05-11T14:10:18.334Z,0.80
2019-05-11T14:12:47.922Z,0.47
2019-05-11T14:15:19.367Z,0.67
2019-05-11T14:17:53.089Z,0.70
2019-05-11T14:20:19.966Z,0.80
2019-05-11T14:22:49.194Z,0.50
2019-05-11T14:25:18.832Z,0.40
2019-05-11T14:27:48.824Z,0.83
2019-05-11T14:30:19.075Z,0.70
2019-05-11T14:32:49.182Z,0.63
2019-05-11T14:35:18.978Z,0.60
2019-05-11T14:37:49.477Z,0.60
2019-05-11T14:40:19.465Z,0.40
2019-05-11T14:42:49.376Z,0.80
2019-05-11T14:45:19.308Z,0.50
2019-05-11T14:47:49.434Z,0.70
2019-05-11T14:50:19.374Z,0.87
2019-05-11T14:52:49.448Z,0.80
2019-05-11T14:55:19.630Z,0.40
2019-05-11T14:57:49.551Z,0.70
2019-05-11T15:00:19.604Z,0.67
2019-05-11T15:02:50.127Z,0.57
2019-05-11T15:05:21.359Z,0.80
2019-05-11T15:07:52.794Z,0.60
2019-05-11T15:10:23.448Z,0.50
2019-05-11T15:12:52.799Z,0.70
2019-05-11T15:15:22.049Z,0.70
2019-05-11T15:17:51.903Z,0.77
2019-05-11T15:20:21.128Z,1.07
2019-05-11T15:22:50.901Z,0.50
2019-05-11T15:25:20.801Z,0.90
2019-05-11T15:27:50.661Z,0.87
2019-05-11T15:30:20.874Z,1.00
2019-05-11T15:32:50.767Z,0.60
2019-05-11T15:35:20.687Z,0.70
2019-05-11T15:37:50.026Z,0.50
2019-05-11T15:40:21.043Z,0.57
2019-05-11T15:42:51.262Z,0.70
2019-05-11T15:45:20.670Z,0.90
2019-05-11T15:47:49.915Z,0.70
2019-05-11T15:50:21.226Z,0.50
2019-05-11T15:52:51.182Z,0.80
2019-05-11T15:55:20.715Z,0.87
2019-05-11T15:57:50.798Z,0.93
2019-05-11T16:00:20.521Z,0.70
2019-05-11T16:02:49.729Z,0.90
2019-05-11T16:05:19.905Z,0.67
2019-05-11T16:07:49.752Z,0.83
2019-05-11T16:10:19.866Z,0.73
2019-05-11T16:12:49.853Z,0.90
2019-05-11T16:15:19.936Z,0.70
2019-05-11T16:17:49.874Z,0.70
2019-05-11T16:20:20.013Z,0.90
2019-05-11T16:22:49.348Z,0.83
2019-05-11T16:25:20.016Z,0.90
2019-05-11T16:27:50.363Z,0.60
2019-05-11T16:30:21.541Z,0.97
2019-05-11T16:32:51.835Z,0.87
2019-05-11T16:35:21.788Z,0.50
2019-05-11T16:37:51.098Z,0.80
2019-05-11T16:40:21.369Z,0.90
2019-05-11T16:42:51.381Z,0.80
2019-05-11T16:45:23.755Z,0.70
2019-05-11T16:47:53.006Z,0.80
2019-05-11T16:50:22.953Z,0.60
2019-05-11T16:52:52.793Z,1.03
2019-05-11T16:55:22.685Z,1.10
2019-05-11T16:57:52.598Z,0.60
2019-05-11T17:00:22.573Z,0.80
2019-05-11T17:02:52.469Z,0.60
2019-05-11T17:05:26.777Z,1.00
2019-05-11T17:07:53.317Z,0.93
2019-05-11T17:10:22.682Z,0.50
2019-05-11T17:12:51.906Z,0.60
2019-05-11T17:15:21.764Z,0.70
2019-05-11T17:17:51.673Z,0.70
2019-05-11T17:20:21.549Z,0.47
2019-05-11T17:22:53.745Z,0.67
2019-05-11T17:25:23.212Z,0.70
2019-05-11T17:27:53.120Z,0.60
2019-05-11T17:30:22.652Z,0.50
2019-05-11T17:32:51.860Z,1.70
2019-05-11T17:35:21.703Z,0.50
2019-05-11T17:37:51.005Z,0.40
2019-05-11T17:40:23.530Z,0.60
2019-05-11T17:42:53.908Z,0.50
2019-05-11T17:45:24.126Z,0.63
2019-05-11T17:47:54.041Z,0.60
2019-05-11T17:50:23.927Z,0.60
2019-05-11T17:52:53.879Z,0.70
2019-05-11T17:55:23.219Z,0.50
2019-05-11T17:57:54.027Z,0.80
2019-05-11T18:00:24.303Z,0.60
2019-05-11T18:02:54.234Z,0.50
2019-05-11T18:05:24.454Z,0.77
2019-05-11T18:07:53.728Z,0.67
2019-05-11T18:10:23.852Z,0.67
2019-05-11T18:12:53.221Z,0.90
2019-05-11T18:15:23.108Z,0.70
2019-05-11T18:17:53.039Z,1.20
2019-05-11T18:20:22.982Z,0.70
2019-05-11T18:22:52.295Z,0.70
2019-05-11T18:25:21.535Z,0.90
2019-05-11T18:27:51.475Z,0.77
2019-05-11T18:30:21.440Z,0.70
2019-05-11T18:32:51.367Z,0.80
2019-05-11T18:35:21.313Z,0.87
2019-05-11T18:37:50.625Z,0.83
2019-05-11T18:40:20.486Z,0.70
2019-05-11T18:42:50.397Z,0.77
2019-05-11T18:45:20.364Z,0.83
2019-05-11T18:47:50.564Z,0.57
2019-05-11T18:50:30.451Z,0.60
2019-05-11T18:52:52.133Z,0.70
2019-05-11T18:55:22.079Z,0.60
2019-05-11T18:57:52.012Z,0.97
2019-05-11T19:00:21.360Z,0.90
2019-05-11T19:02:50.843Z,0.73
2019-05-11T19:05:20.704Z,0.67
2019-05-11T19:07:50.013Z,0.40
2019-05-11T19:10:19.340Z,0.63
2019-05-11T19:12:49.247Z,0.50
2019-05-11T19:15:19.468Z,0.53
2019-05-11T19:17:49.600Z,0.40
2019-05-11T19:20:19.643Z,0.70
2019-05-11T19:22:49.574Z,0.57
2019-05-11T19:25:19.559Z,0.43
2019-05-11T19:27:50.787Z,0.50
2019-05-11T19:30:21.532Z,0.60
2019-05-11T19:32:50.830Z,0.40
2019-05-11T19:35:21.449Z,0.70
2019-05-11T19:37:50.910Z,1.23
2019-05-11T19:40:20.738Z,0.70
2019-05-11T19:42:58.916Z,0.77
2019-05-11T19:45:29.524Z,0.67
2019-05-11T19:47:59.649Z,0.50
2019-05-11T19:50:29.515Z,0.60
2019-05-11T19:52:59.445Z,0.50
2019-05-11T19:55:29.357Z,0.30
2019-05-11T19:57:59.299Z,0.30
2019-05-11T20:00:29.228Z,0.63
2019-05-11T20:02:59.062Z,0.60
2019-05-11T20:05:29.091Z,0.57
2019-05-11T20:07:59.073Z,0.40
2019-05-11T20:10:29.029Z,0.57
2019-05-11T20:12:59.050Z,0.53
2019-05-11T20:15:28.425Z,0.67
2019-05-11T20:17:58.644Z,0.50
2019-05-11T20:20:28.559Z,0.50
2019-05-11T20:22:58.443Z,0.50
2019-05-11T20:25:29.066Z,0.40
2019-05-11T20:27:58.613Z,0.53
2019-05-11T20:30:28.044Z,0.60
2019-05-11T20:32:57.858Z,0.73
2019-05-11T20:35:28.073Z,0.60
2019-05-11T20:37:58.087Z,0.43
2019-05-11T20:40:28.597Z,0.47
2019-05-11T20:42:58.934Z,0.47
2019-05-11T20:45:28.854Z,0.30
2019-05-11T20:47:58.223Z,0.50
2019-05-11T20:50:28.077Z,0.53
2019-05-11T20:52:58.321Z,0.60
2019-05-11T20:55:28.553Z,0.60
2019-05-11T20:57:58.654Z,0.33
2019-05-11T21:00:28.873Z,0.47
2019-05-11T21:02:59.027Z,0.70
2019-05-11T21:05:29.052Z,0.47
2019-05-11T21:07:58.989Z,0.53
2019-05-11T21:10:28.339Z,0.40
2019-05-11T21:12:58.195Z,0.60
2019-05-11T21:15:29.090Z,0.70
2019-05-11T21:17:59.045Z,0.60
2019-05-11T21:20:29.106Z,0.60
2019-05-11T21:22:58.553Z,0.63
2019-05-11T21:25:28.889Z,0.50
2019-05-11T21:27:59.047Z,0.60
2019-05-11T21:30:29.289Z,0.80
2019-05-11T21:32:59.227Z,0.60
2019-05-11T21:35:29.145Z,0.50
2019-05-11T21:37:59.112Z,0.50
2019-05-11T21:40:31.259Z,0.70
2019-05-11T21:43:00.668Z,0.87
2019-05-11T21:45:30.561Z,0.50
2019-05-11T21:48:00.452Z,0.80
2019-05-11T21:50:30.632Z,1.10
2019-05-11T21:53:00.490Z,0.67
2019-05-11T21:55:30.428Z,0.90
2019-05-11T21:58:00.369Z,1.13
2019-05-11T22:00:30.586Z,0.97
2019-05-11T22:03:00.552Z,0.60
2019-05-11T22:05:30.519Z,0.90
2019-05-11T22:07:59.844Z,0.70
2019-05-11T22:10:29.696Z,0.90
2019-05-11T22:12:59.694Z,1.00
2019-05-11T22:15:31.006Z,0.90
2019-05-11T22:17:59.842Z,1.10
2019-05-11T22:20:29.657Z,0.70
2019-05-11T22:22:59.026Z,1.17
2019-05-11T22:25:28.962Z,0.87
2019-05-11T22:27:58.342Z,1.10
2019-05-11T22:30:28.022Z,1.10
2019-05-11T22:32:58.316Z,1.13
2019-05-11T22:35:28.780Z,0.90
2019-05-11T22:37:58.923Z,1.00
2019-05-11T22:40:28.353Z,0.87
2019-05-11T22:43:01.252Z,1.03
2019-05-11T22:45:30.166Z,0.90
2019-05-11T22:48:00.098Z,0.70
2019-05-11T22:50:29.933Z,0.97
2019-05-11T22:52:59.843Z,1.27
2019-05-11T22:55:29.744Z,1.07
2019-05-11T22:57:59.602Z,1.00
2019-05-11T23:00:42.674Z,1.10
2019-05-11T23:03:12.965Z,1.10
2019-05-11T23:05:43.292Z,1.00
2019-05-11T23:08:13.165Z,1.20
2019-05-11T23:10:43.086Z,1.30
2019-05-11T23:13:13.059Z,1.23
2019-05-11T23:15:43.263Z,1.27
2019-05-11T23:18:13.195Z,1.50
2019-05-11T23:20:43.053Z,1.60
2019-05-11T23:23:12.380Z,1.47
2019-05-11T23:25:42.187Z,1.70
2019-05-11T23:28:12.118Z,2.20
2019-05-11T23:30:41.944Z,1.87
2019-05-11T23:33:11.871Z,1.87
2019-05-11T23:35:41.198Z,2.27
2019-05-11T23:38:10.420Z,2.10
2019-05-11T23:40:40.234Z,2.10
2019-05-11T23:43:10.125Z,2.30
2019-05-11T23:45:40.049Z,2.50
2019-05-11T23:48:09.667Z,2.20
2019-05-11T23:50:39.505Z,2.60
2019-05-11T23:53:10.192Z,3.30
2019-05-11T23:55:40.494Z,3.20
2019-05-11T23:58:10.389Z,3.00
